createdAt,value
2019-04-16T00:00:11.877Z,2.40
2019-04-16T00:00:47.327Z,2.38
2019-04-16T00:01:21.326Z,2.33
2019-04-16T00:02:12.218Z,2.29
2019-04-16T00:02:52.278Z,2.30
2019-04-16T00:03:23.872Z,2.33
2019-04-16T00:03:57.069Z,2.32
2019-04-16T00:04:37.231Z,2.32
2019-04-16T00:05:13.009Z,2.30
2019-04-16T00:05:58.655Z,2.25
2019-04-16T00:06:32.570Z,2.13
2019-04-16T00:07:05.835Z,2.14
2019-04-16T00:07:41.492Z,2.14
2019-04-16T00:08:27.874Z,2.14
2019-04-16T00:08:54.162Z,2.03
2019-04-16T00:09:31.285Z,2.02
2019-04-16T00:10:23.815Z,2.15
2019-04-16T00:10:57.901Z,2.18
2019-04-16T00:11:48.718Z,2.17
2019-04-16T00:12:21.812Z,2.17
2019-04-16T00:12:54.890Z,2.16
2019-04-16T00:13:30.880Z,2.12
2019-04-16T00:14:08.505Z,2.10
2019-04-16T00:14:42.298Z,2.10
2019-04-16T00:15:13.477Z,2.10
2019-04-16T00:15:44.762Z,2.11
2019-04-16T00:16:15.960Z,2.09
2019-04-16T00:16:47.149Z,2.11
2019-04-16T00:17:18.331Z,2.12
2019-04-16T00:17:49.523Z,2.11
2019-04-16T00:18:20.905Z,2.10
2019-04-16T00:18:57.983Z,2.09
2019-04-16T00:19:25.155Z,2.08
2019-04-16T00:19:56.349Z,2.06
2019-04-16T00:20:27.525Z,2.07
2019-04-16T00:21:00.640Z,2.07
2019-04-16T00:21:41.239Z,2.09
2019-04-16T00:22:23.529Z,2.08
2019-04-16T00:23:03.697Z,2.08
2019-04-16T00:23:53.300Z,2.09
2019-04-16T00:24:26.366Z,2.09
2019-04-16T00:24:57.592Z,2.05
2019-04-16T00:25:28.876Z,2.04
2019-04-16T00:26:00.191Z,1.94
2019-04-16T00:26:31.473Z,2.02
2019-04-16T00:27:02.923Z,2.02
2019-04-16T00:27:34.161Z,1.99
2019-04-16T00:28:05.374Z,1.88
2019-04-16T00:28:36.528Z,1.98
2019-04-16T00:29:08.848Z,1.96
2019-04-16T00:29:40.060Z,1.87
2019-04-16T00:30:12.203Z,1.97
2019-04-16T00:30:43.398Z,1.98
2019-04-16T00:31:14.678Z,1.99
2019-04-16T00:31:47.767Z,2.01
2019-04-16T00:32:20.902Z,2.00
2019-04-16T00:32:52.066Z,2.00
2019-04-16T00:33:23.287Z,2.00
2019-04-16T00:33:54.443Z,2.00
2019-04-16T00:34:25.658Z,2.01
2019-04-16T00:34:56.898Z,2.01
2019-04-16T00:35:28.146Z,2.00
2019-04-16T00:35:59.374Z,2.00
2019-04-16T00:36:30.613Z,2.00
2019-04-16T00:37:01.852Z,2.00
2019-04-16T00:37:33.109Z,1.92
2019-04-16T00:38:04.360Z,1.96
2019-04-16T00:38:40.980Z,1.94
2019-04-16T00:39:09.148Z,1.94
2019-04-16T00:39:41.847Z,1.94
2019-04-16T00:40:13.096Z,1.92
2019-04-16T00:40:44.352Z,1.81
2019-04-16T00:41:15.574Z,1.81
2019-04-16T00:41:46.780Z,1.90
2019-04-16T00:42:19.025Z,1.90
2019-04-16T00:42:50.289Z,1.88
2019-04-16T00:43:21.528Z,1.88
2019-04-16T00:43:52.764Z,1.88
2019-04-16T00:44:24.017Z,1.87
2019-04-16T00:44:55.575Z,1.84
2019-04-16T00:45:26.933Z,1.84
2019-04-16T00:45:58.275Z,1.86
2019-04-16T00:46:29.481Z,1.86
2019-04-16T00:47:00.706Z,1.83
2019-04-16T00:47:32.052Z,1.84
2019-04-16T00:48:03.290Z,1.83
2019-04-16T00:48:34.557Z,1.80
2019-04-16T00:49:05.799Z,1.80
2019-04-16T00:49:37.979Z,1.73
2019-04-16T00:50:09.489Z,1.73
2019-04-16T00:50:40.743Z,1.70
2019-04-16T00:51:11.998Z,1.68
2019-04-16T00:51:43.226Z,1.65
2019-04-16T00:52:14.389Z,1.65
2019-04-16T00:52:45.601Z,1.64
2019-04-16T00:53:16.768Z,1.60
2019-04-16T00:53:47.993Z,1.60
2019-04-16T00:54:19.143Z,1.59
2019-04-16T00:54:50.358Z,1.57
2019-04-16T00:55:21.526Z,1.59
2019-04-16T00:55:52.840Z,1.59
2019-04-16T00:56:24.032Z,1.59
2019-04-16T00:56:55.247Z,1.56
2019-04-16T00:57:26.410Z,1.53
2019-04-16T00:57:57.626Z,1.51
2019-04-16T00:58:29.840Z,1.49
2019-04-16T00:59:02.175Z,1.46
2019-04-16T00:59:33.420Z,1.42
2019-04-16T01:00:05.146Z,1.41
2019-04-16T01:00:36.400Z,1.38
2019-04-16T01:01:07.614Z,1.36
2019-04-16T01:01:38.845Z,1.33
2019-04-16T01:02:10.153Z,1.33
2019-04-16T01:02:41.355Z,1.30
2019-04-16T01:03:12.625Z,1.27
2019-04-16T01:03:43.779Z,1.24
2019-04-16T01:04:14.997Z,1.25
2019-04-16T01:04:46.172Z,1.28
2019-04-16T01:05:17.505Z,1.28
2019-04-16T01:05:48.659Z,1.31
2019-04-16T01:06:19.848Z,1.31
2019-04-16T01:06:51.042Z,1.31
2019-04-16T01:07:22.257Z,1.31
2019-04-16T01:07:53.419Z,1.33
2019-04-16T01:08:24.641Z,1.34
2019-04-16T01:08:55.805Z,1.33
2019-04-16T01:09:27.609Z,1.31
2019-04-16T01:09:58.766Z,1.27
2019-04-16T01:10:29.980Z,1.26
2019-04-16T01:11:01.125Z,1.28
2019-04-16T01:11:32.365Z,1.31
2019-04-16T01:12:03.660Z,1.33
2019-04-16T01:12:34.872Z,1.34
2019-04-16T01:13:06.030Z,1.33
2019-04-16T01:13:37.248Z,1.32
2019-04-16T01:14:08.398Z,1.31
2019-04-16T01:14:39.713Z,1.28
2019-04-16T01:15:10.971Z,1.27
2019-04-16T01:15:42.232Z,1.23
2019-04-16T01:16:13.474Z,1.23
2019-04-16T01:16:44.692Z,1.22
2019-04-16T01:17:15.892Z,1.24
2019-04-16T01:17:47.107Z,1.25
2019-04-16T01:18:18.260Z,1.27
2019-04-16T01:18:49.472Z,1.30
2019-04-16T01:19:20.625Z,1.31
2019-04-16T01:19:51.984Z,1.32
2019-04-16T01:20:23.140Z,1.31
2019-04-16T01:20:54.426Z,1.26
2019-04-16T01:21:25.652Z,1.25
2019-04-16T01:21:56.862Z,1.25
2019-04-16T01:22:28.051Z,1.25
2019-04-16T01:22:59.272Z,1.22
2019-04-16T01:23:30.430Z,1.21
2019-04-16T01:24:01.696Z,1.20
2019-04-16T01:24:32.883Z,1.17
2019-04-16T01:25:05.302Z,1.17
2019-04-16T01:25:36.461Z,1.15
2019-04-16T01:26:07.834Z,1.11
2019-04-16T01:26:39.119Z,1.11
2019-04-16T01:27:10.330Z,1.10
2019-04-16T01:27:43.670Z,1.10
2019-04-16T01:28:33.155Z,1.12
2019-04-16T01:29:06.209Z,1.10
2019-04-16T01:29:37.423Z,1.10
2019-04-16T01:30:10.572Z,1.09
2019-04-16T01:30:46.500Z,1.10
2019-04-16T01:31:17.659Z,1.10
2019-04-16T01:31:57.656Z,1.11
2019-04-16T01:32:47.159Z,1.01
2019-04-16T01:33:23.138Z,1.01
2019-04-16T01:33:57.181Z,1.04
2019-04-16T01:34:34.378Z,1.05
2019-04-16T01:35:18.708Z,1.05
2019-04-16T01:36:00.261Z,1.06
2019-04-16T01:36:36.230Z,1.06
2019-04-16T01:37:17.995Z,1.06
2019-04-16T01:38:07.596Z,1.06
2019-04-16T01:38:52.722Z,0.99
2019-04-16T01:39:28.496Z,0.99
2019-04-16T01:40:01.423Z,0.97
2019-04-16T01:40:34.506Z,0.97
2019-04-16T01:41:07.594Z,1.07
2019-04-16T01:41:38.802Z,1.05
2019-04-16T01:42:09.981Z,1.04
2019-04-16T01:42:41.358Z,1.05
2019-04-16T01:43:12.598Z,1.06
2019-04-16T01:43:43.797Z,1.05
2019-04-16T01:44:14.959Z,1.04
2019-04-16T01:44:46.174Z,1.05
2019-04-16T01:45:17.333Z,1.04
2019-04-16T01:45:48.541Z,1.05
2019-04-16T01:46:19.709Z,1.04
2019-04-16T01:46:50.924Z,0.96
2019-04-16T01:47:22.098Z,0.96
2019-04-16T01:47:53.318Z,1.07
2019-04-16T01:48:24.495Z,1.07
2019-04-16T01:48:55.713Z,1.04
2019-04-16T01:49:26.879Z,0.93
2019-04-16T01:49:58.103Z,0.93
2019-04-16T01:50:29.263Z,1.03
2019-04-16T01:51:00.568Z,1.03
2019-04-16T01:51:31.729Z,1.04
2019-04-16T01:52:02.940Z,1.04
2019-04-16T01:52:34.149Z,1.05
2019-04-16T01:53:05.384Z,1.03
2019-04-16T01:53:36.581Z,1.01
2019-04-16T01:54:08.866Z,1.02
2019-04-16T01:54:40.281Z,1.02
2019-04-16T01:55:11.810Z,1.00
2019-04-16T01:55:43.066Z,0.92
2019-04-16T01:56:14.330Z,1.01
2019-04-16T01:56:45.586Z,1.01
2019-04-16T01:57:16.854Z,1.01
2019-04-16T01:57:48.104Z,0.98
2019-04-16T01:58:19.363Z,0.98
2019-04-16T01:58:50.604Z,0.95
2019-04-16T01:59:21.984Z,0.95
2019-04-16T01:59:53.218Z,0.91
2019-04-16T02:00:24.490Z,0.82
2019-04-16T02:00:55.742Z,0.90
2019-04-16T02:01:26.985Z,0.91
2019-04-16T02:01:58.254Z,0.92
2019-04-16T02:02:29.507Z,0.91
2019-04-16T02:03:00.752Z,0.88
2019-04-16T02:03:31.998Z,0.89
2019-04-16T02:04:03.213Z,0.87
2019-04-16T02:04:34.371Z,0.89
2019-04-16T02:05:05.677Z,0.89
2019-04-16T02:05:36.844Z,0.87
2019-04-16T02:06:08.242Z,0.83
2019-04-16T02:06:39.402Z,0.80
2019-04-16T02:07:10.587Z,0.83
2019-04-16T02:07:41.935Z,0.78
2019-04-16T02:08:13.190Z,0.78
2019-04-16T02:08:44.341Z,0.77
2019-04-16T02:09:22.242Z,0.75
2019-04-16T02:09:48.608Z,0.74
2019-04-16T02:10:19.756Z,0.74
2019-04-16T02:10:50.968Z,0.73
2019-04-16T02:11:22.126Z,0.72
2019-04-16T02:11:53.331Z,0.71
2019-04-16T02:12:24.478Z,0.70
2019-04-16T02:12:55.692Z,0.69
2019-04-16T02:13:26.841Z,0.68
2019-04-16T02:13:58.051Z,0.67
2019-04-16T02:14:29.235Z,0.68
2019-04-16T02:15:00.485Z,0.67
2019-04-16T02:15:31.941Z,0.66
2019-04-16T02:16:03.155Z,0.68
2019-04-16T02:16:34.343Z,0.59
2019-04-16T02:17:05.631Z,0.68
2019-04-16T02:17:36.786Z,0.67
2019-04-16T02:18:08.254Z,0.66
2019-04-16T02:18:39.408Z,0.69
2019-04-16T02:19:10.616Z,0.70
2019-04-16T02:19:41.798Z,0.73
2019-04-16T02:20:13.023Z,0.72
2019-04-16T02:20:44.186Z,0.73
2019-04-16T02:21:15.408Z,0.73
2019-04-16T02:21:46.584Z,0.74
2019-04-16T02:22:17.799Z,0.73
2019-04-16T02:22:48.956Z,0.70
2019-04-16T02:23:20.171Z,0.70
2019-04-16T02:23:51.331Z,0.69
2019-04-16T02:24:22.661Z,0.67
2019-04-16T02:24:53.857Z,0.66
2019-04-16T02:25:25.043Z,0.66
2019-04-16T02:25:56.253Z,0.63
2019-04-16T02:26:27.441Z,0.65
2019-04-16T02:26:58.625Z,0.66
2019-04-16T02:27:29.823Z,0.65
2019-04-16T02:28:01.019Z,0.64
2019-04-16T02:28:32.210Z,0.63
2019-04-16T02:29:03.395Z,0.65
2019-04-16T02:29:34.590Z,0.63
2019-04-16T02:30:06.036Z,0.63
2019-04-16T02:30:39.529Z,0.62
2019-04-16T02:31:15.854Z,0.62
2019-04-16T02:31:43.624Z,0.62
2019-04-16T02:32:14.781Z,0.62
2019-04-16T02:32:46.014Z,0.61
2019-04-16T02:33:18.189Z,0.60
2019-04-16T02:33:50.661Z,0.60
2019-04-16T02:34:21.859Z,0.62
2019-04-16T02:34:53.154Z,0.62
2019-04-16T02:35:24.384Z,0.62
2019-04-16T02:35:55.572Z,0.64
2019-04-16T02:36:26.757Z,0.63
2019-04-16T02:37:02.494Z,0.63
2019-04-16T02:37:35.520Z,0.61
2019-04-16T02:38:11.124Z,0.61
2019-04-16T02:38:37.162Z,0.64
2019-04-16T02:39:08.318Z,0.67
2019-04-16T02:39:48.581Z,0.67
2019-04-16T02:40:17.022Z,0.69
2019-04-16T02:40:51.599Z,0.70
2019-04-16T02:41:23.236Z,0.70
2019-04-16T02:41:56.826Z,0.68
2019-04-16T02:42:30.445Z,0.75
2019-04-16T02:43:03.944Z,0.79
2019-04-16T02:43:31.540Z,0.79
2019-04-16T02:44:03.274Z,0.81
2019-04-16T02:44:34.435Z,0.81
2019-04-16T02:45:05.758Z,0.84
2019-04-16T02:45:36.956Z,0.84
2019-04-16T02:46:08.505Z,0.86
2019-04-16T02:46:40.753Z,0.76
2019-04-16T02:47:12.009Z,0.76
2019-04-16T02:47:43.247Z,0.86
2019-04-16T02:48:16.668Z,0.88
2019-04-16T02:48:51.473Z,0.88
2019-04-16T02:49:24.453Z,0.87
2019-04-16T02:49:56.802Z,0.87
2019-04-16T02:50:32.258Z,0.86
2019-04-16T02:51:08.710Z,0.88
2019-04-16T02:51:41.838Z,0.88
2019-04-16T02:52:16.451Z,0.89
2019-04-16T02:52:55.646Z,0.87
2019-04-16T02:53:29.712Z,0.87
2019-04-16T02:54:02.773Z,0.87
2019-04-16T02:54:35.903Z,0.90
2019-04-16T02:55:20.703Z,0.91
2019-04-16T02:55:53.814Z,0.93
2019-04-16T02:56:24.997Z,0.93
2019-04-16T02:56:59.102Z,0.93
2019-04-16T02:57:45.370Z,0.95
2019-04-16T02:58:21.407Z,0.95
2019-04-16T02:59:00.510Z,0.95
2019-04-16T02:59:33.668Z,0.97
2019-04-16T03:00:06.819Z,0.97
2019-04-16T03:00:38.521Z,0.96
2019-04-16T03:01:28.093Z,0.96
2019-04-16T03:02:17.457Z,0.94
2019-04-16T03:02:56.400Z,0.91
2019-04-16T03:03:32.145Z,0.91
2019-04-16T03:04:14.203Z,0.89
2019-04-16T03:04:58.040Z,0.87
2019-04-16T03:05:29.014Z,0.88
2019-04-16T03:06:01.881Z,0.88
2019-04-16T03:06:33.383Z,0.90
2019-04-16T03:07:04.649Z,0.91
2019-04-16T03:07:35.895Z,0.80
2019-04-16T03:08:07.114Z,0.91
2019-04-16T03:08:38.443Z,0.91
2019-04-16T03:09:09.976Z,0.94
2019-04-16T03:09:41.532Z,0.97
2019-04-16T03:10:13.914Z,0.98
2019-04-16T03:10:45.421Z,0.96
2019-04-16T03:11:17.994Z,0.93
2019-04-16T03:11:49.365Z,0.94
2019-04-16T03:12:21.527Z,0.96
2019-04-16T03:12:52.980Z,0.96
2019-04-16T03:13:24.822Z,0.97
2019-04-16T03:13:59.242Z,0.97
2019-04-16T03:14:30.131Z,0.98
2019-04-16T03:15:02.795Z,0.98
2019-04-16T03:15:35.978Z,0.99
2019-04-16T03:16:09.655Z,0.99
2019-04-16T03:16:55.536Z,1.00
2019-04-16T03:17:42.914Z,0.99
2019-04-16T03:18:16.230Z,1.01
2019-04-16T03:19:04.173Z,1.00
2019-04-16T03:19:43.181Z,0.96
2019-04-16T03:20:16.529Z,0.93
2019-04-16T03:20:47.776Z,0.89
2019-04-16T03:21:19.021Z,0.88
2019-04-16T03:21:50.267Z,0.89
2019-04-16T03:22:21.483Z,0.88
2019-04-16T03:22:52.669Z,0.88
2019-04-16T03:23:23.906Z,0.86
2019-04-16T03:23:55.146Z,0.86
2019-04-16T03:24:26.394Z,0.86
2019-04-16T03:24:57.744Z,0.87
2019-04-16T03:25:29.024Z,0.85
2019-04-16T03:26:00.261Z,0.83
2019-04-16T03:26:31.494Z,0.83
2019-04-16T03:27:04.567Z,0.83
2019-04-16T03:27:35.858Z,0.82
2019-04-16T03:28:07.040Z,0.82
2019-04-16T03:28:38.390Z,0.81
2019-04-16T03:29:10.652Z,0.81
2019-04-16T03:29:41.992Z,0.84
2019-04-16T03:30:13.650Z,0.83
2019-04-16T03:30:45.031Z,0.82
2019-04-16T03:31:22.304Z,0.82
2019-04-16T03:31:57.323Z,0.80
2019-04-16T03:32:22.606Z,0.81
2019-04-16T03:32:53.829Z,0.80
2019-04-16T03:33:25.265Z,0.78
2019-04-16T03:33:56.549Z,0.78
2019-04-16T03:34:27.823Z,0.77
2019-04-16T03:34:59.111Z,0.75
2019-04-16T03:35:30.389Z,0.76
2019-04-16T03:36:01.646Z,0.77
2019-04-16T03:36:32.893Z,0.78
2019-04-16T03:37:04.145Z,0.77
2019-04-16T03:37:35.328Z,0.77
2019-04-16T03:38:06.574Z,0.80
2019-04-16T03:38:41.803Z,0.79
2019-04-16T03:39:13.190Z,0.80
2019-04-16T03:39:44.927Z,0.83
2019-04-16T03:40:18.642Z,0.85
2019-04-16T03:40:49.467Z,0.85
2019-04-16T03:41:20.722Z,0.75
2019-04-16T03:41:56.016Z,0.86
2019-04-16T03:42:27.390Z,0.88
2019-04-16T03:42:59.302Z,0.91
2019-04-16T03:43:32.828Z,0.91
2019-04-16T03:44:05.104Z,0.92
2019-04-16T03:44:37.452Z,0.91
2019-04-16T03:45:09.864Z,0.96
2019-04-16T03:45:41.750Z,0.96
2019-04-16T03:46:14.190Z,0.96
2019-04-16T03:46:46.916Z,0.95
2019-04-16T03:47:19.877Z,0.97
2019-04-16T03:47:52.280Z,0.97
2019-04-16T03:48:24.483Z,0.97
2019-04-16T03:48:56.471Z,0.97
2019-04-16T03:49:28.491Z,0.97
2019-04-16T03:50:00.254Z,0.96
2019-04-16T03:50:32.231Z,0.96
2019-04-16T03:51:04.757Z,0.97
2019-04-16T03:51:36.579Z,0.97
2019-04-16T03:52:09.437Z,0.97
2019-04-16T03:52:45.501Z,0.98
2019-04-16T03:53:17.487Z,1.00
2019-04-16T03:53:49.541Z,1.01
2019-04-16T03:54:22.380Z,1.00
2019-04-16T03:54:54.709Z,1.04
2019-04-16T03:55:26.573Z,1.03
2019-04-16T03:55:58.305Z,1.04
2019-04-16T03:56:31.189Z,1.06
2019-04-16T03:57:02.876Z,1.04
2019-04-16T03:57:34.163Z,1.08
2019-04-16T03:58:06.751Z,1.08
2019-04-16T03:58:39.393Z,1.08
2019-04-16T03:59:12.044Z,1.08
2019-04-16T03:59:43.791Z,1.08
2019-04-16T04:00:15.031Z,1.07
2019-04-16T04:00:46.275Z,1.07
2019-04-16T04:01:17.537Z,1.07
2019-04-16T04:01:48.769Z,1.07
2019-04-16T04:02:22.868Z,1.06
2019-04-16T04:02:55.149Z,1.07
2019-04-16T04:03:26.928Z,1.05
2019-04-16T04:03:58.588Z,1.04
2019-04-16T04:04:30.030Z,1.04
2019-04-16T04:05:06.119Z,1.05
2019-04-16T04:05:35.663Z,1.04
2019-04-16T04:06:08.082Z,1.04
2019-04-16T04:06:40.616Z,1.03
2019-04-16T04:07:13.326Z,1.03
2019-04-16T04:07:45.092Z,1.04
2019-04-16T04:08:17.921Z,1.05
2019-04-16T04:08:53.132Z,1.07
2019-04-16T04:09:22.982Z,1.10
2019-04-16T04:09:55.184Z,1.12
2019-04-16T04:10:30.789Z,1.13
2019-04-16T04:10:59.500Z,1.12
2019-04-16T04:11:31.974Z,1.10
2019-04-16T04:12:03.158Z,1.12
2019-04-16T04:12:34.489Z,1.13
2019-04-16T04:13:05.843Z,1.15
2019-04-16T04:13:37.057Z,1.17
2019-04-16T04:14:09.345Z,1.18
2019-04-16T04:14:41.545Z,1.18
2019-04-16T04:15:13.092Z,1.20
2019-04-16T04:15:44.353Z,1.20
2019-04-16T04:16:15.600Z,1.20
2019-04-16T04:16:46.841Z,1.19
2019-04-16T04:17:18.045Z,1.18
2019-04-16T04:17:49.293Z,1.17
2019-04-16T04:18:20.483Z,1.17
2019-04-16T04:18:51.693Z,1.18
2019-04-16T04:19:22.877Z,1.20
2019-04-16T04:19:54.071Z,1.22
2019-04-16T04:20:25.293Z,1.23
2019-04-16T04:20:56.466Z,1.24
2019-04-16T04:21:27.695Z,1.24
2019-04-16T04:21:58.881Z,1.24
2019-04-16T04:22:30.068Z,1.26
2019-04-16T04:23:01.250Z,1.27
2019-04-16T04:23:32.444Z,1.29
2019-04-16T04:24:03.659Z,1.30
2019-04-16T04:24:34.854Z,1.30
2019-04-16T04:25:06.606Z,1.30
2019-04-16T04:25:38.942Z,1.33
2019-04-16T04:26:10.306Z,1.34
2019-04-16T04:26:42.402Z,1.34
2019-04-16T04:27:18.229Z,1.32
2019-04-16T04:27:47.703Z,1.34
2019-04-16T04:28:20.568Z,1.36
2019-04-16T04:28:52.643Z,1.38
2019-04-16T04:29:24.862Z,1.37
2019-04-16T04:29:57.270Z,1.37
2019-04-16T04:30:29.551Z,1.37
2019-04-16T04:31:01.984Z,1.40
2019-04-16T04:31:33.281Z,1.41
2019-04-16T04:32:04.482Z,1.40
2019-04-16T04:32:36.301Z,1.42
2019-04-16T04:33:09.431Z,1.42
2019-04-16T04:33:43.003Z,1.42
2019-04-16T04:34:16.987Z,1.42
2019-04-16T04:34:48.575Z,1.38
2019-04-16T04:35:22.077Z,1.38
2019-04-16T04:35:53.573Z,1.38
2019-04-16T04:36:27.093Z,1.40
2019-04-16T04:36:59.733Z,1.40
2019-04-16T04:37:31.929Z,1.45
2019-04-16T04:38:04.203Z,1.46
2019-04-16T04:38:37.571Z,1.48
2019-04-16T04:39:14.432Z,1.50
2019-04-16T04:39:44.253Z,1.48
2019-04-16T04:40:17.544Z,1.48
2019-04-16T04:40:50.952Z,1.49
2019-04-16T04:41:23.049Z,1.49
2019-04-16T04:41:56.448Z,1.48
2019-04-16T04:42:29.014Z,1.50
2019-04-16T04:43:01.725Z,1.53
2019-04-16T04:43:34.202Z,1.52
2019-04-16T04:44:06.586Z,1.53
2019-04-16T04:44:37.783Z,1.53
2019-04-16T04:45:10.201Z,1.55
2019-04-16T04:45:41.937Z,1.55
2019-04-16T04:46:14.970Z,1.57
2019-04-16T04:46:46.961Z,1.57
2019-04-16T04:47:19.677Z,1.60
2019-04-16T04:47:52.273Z,1.60
2019-04-16T04:48:24.344Z,1.62
2019-04-16T04:48:59.908Z,1.65
2019-04-16T04:49:30.377Z,1.66
2019-04-16T04:50:04.439Z,1.66
2019-04-16T04:50:36.088Z,1.60
2019-04-16T04:51:08.733Z,1.73
2019-04-16T04:51:43.527Z,1.73
2019-04-16T04:52:14.641Z,1.75
2019-04-16T04:52:46.889Z,1.76
2019-04-16T04:53:19.618Z,1.76
2019-04-16T04:53:51.363Z,1.80
2019-04-16T04:54:23.497Z,1.81
2019-04-16T04:54:54.942Z,1.81
2019-04-16T04:55:27.035Z,1.82
2019-04-16T04:55:58.301Z,1.81
2019-04-16T04:56:29.441Z,1.84
2019-04-16T04:57:00.657Z,1.84
2019-04-16T04:57:32.037Z,1.85
2019-04-16T04:58:03.465Z,1.85
2019-04-16T04:58:34.894Z,1.87
2019-04-16T04:59:06.240Z,1.76
2019-04-16T04:59:38.526Z,1.76
2019-04-16T05:00:09.845Z,1.89
2019-04-16T05:00:41.330Z,1.92
2019-04-16T05:01:14.100Z,1.93
2019-04-16T05:01:45.629Z,1.93
2019-04-16T05:02:16.956Z,1.93
2019-04-16T05:02:48.205Z,1.94
2019-04-16T05:03:38.204Z,1.93
2019-04-16T05:04:20.626Z,1.94
2019-04-16T05:04:58.068Z,1.97
2019-04-16T05:05:31.126Z,1.97
2019-04-16T05:06:19.016Z,1.98
2019-04-16T05:06:54.341Z,1.99
2019-04-16T05:07:25.759Z,2.03
2019-04-16T05:07:59.986Z,2.03
2019-04-16T05:08:31.368Z,2.04
2019-04-16T05:09:04.661Z,1.98
2019-04-16T05:09:36.763Z,1.98
2019-04-16T05:10:08.407Z,2.11
2019-04-16T05:10:42.925Z,2.11
2019-04-16T05:11:15.486Z,2.13
2019-04-16T05:11:48.377Z,2.16
2019-04-16T05:12:21.325Z,2.17
2019-04-16T05:12:53.575Z,2.19
2019-04-16T05:13:25.332Z,2.19
2019-04-16T05:13:57.110Z,2.18
2019-04-16T05:14:28.465Z,2.27
2019-04-16T05:14:59.698Z,2.27
2019-04-16T05:15:30.836Z,2.28
2019-04-16T05:16:03.085Z,2.21
2019-04-16T05:16:35.049Z,2.21
2019-04-16T05:17:07.464Z,2.33
2019-04-16T05:17:39.865Z,2.33
2019-04-16T05:18:11.599Z,2.35
2019-04-16T05:18:42.839Z,2.27
2019-04-16T05:19:15.511Z,2.27
2019-04-16T05:19:47.147Z,2.42
2019-04-16T05:20:18.388Z,2.41
2019-04-16T05:20:49.551Z,2.41
2019-04-16T05:21:20.780Z,2.40
2019-04-16T05:21:51.922Z,2.46
2019-04-16T05:22:23.155Z,2.48
2019-04-16T05:22:54.523Z,2.52
2019-04-16T05:23:26.175Z,2.54
2019-04-16T05:23:58.094Z,2.54
2019-04-16T05:24:29.998Z,2.43
2019-04-16T05:25:03.495Z,2.55
2019-04-16T05:25:34.717Z,2.56
2019-04-16T05:26:05.880Z,2.59
2019-04-16T05:26:37.287Z,2.59
2019-04-16T05:27:09.439Z,2.60
2019-04-16T05:27:41.574Z,2.62
2019-04-16T05:28:13.395Z,2.65
2019-04-16T05:28:45.728Z,2.67
2019-04-16T05:29:18.608Z,2.67
2019-04-16T05:29:49.996Z,2.71
2019-04-16T05:30:22.096Z,2.74
2019-04-16T05:30:53.448Z,2.76
2019-04-16T05:31:25.676Z,2.79
2019-04-16T05:31:58.248Z,2.81
2019-04-16T05:32:33.908Z,2.83
2019-04-16T05:33:05.633Z,2.83
2019-04-16T05:33:37.498Z,2.85
2019-04-16T05:34:09.208Z,2.76
2019-04-16T05:34:41.135Z,2.88
2019-04-16T05:35:12.504Z,2.90
2019-04-16T05:35:43.723Z,2.91
2019-04-16T05:36:15.437Z,2.91
2019-04-16T05:36:48.124Z,2.98
2019-04-16T05:37:20.929Z,2.98
2019-04-16T05:37:52.349Z,3.04
2019-04-16T05:38:24.494Z,3.04
2019-04-16T05:38:56.425Z,2.96
2019-04-16T05:39:28.569Z,3.11
2019-04-16T05:39:59.831Z,3.12
2019-04-16T05:40:34.348Z,3.19
2019-04-16T05:41:13.235Z,3.21
2019-04-16T05:41:37.227Z,3.21
2019-04-16T05:42:08.459Z,3.25
2019-04-16T05:42:39.655Z,3.28
2019-04-16T05:43:10.853Z,3.34
2019-04-16T05:43:42.055Z,3.34
2019-04-16T05:44:13.229Z,3.37
2019-04-16T05:44:44.469Z,3.33
2019-04-16T05:45:15.765Z,3.33
2019-04-16T05:45:46.956Z,3.47
2019-04-16T05:46:19.140Z,3.48
2019-04-16T05:46:50.349Z,3.49
2019-04-16T05:47:21.535Z,3.51
2019-04-16T05:47:52.708Z,3.55
2019-04-16T05:48:23.908Z,3.57
2019-04-16T05:48:55.092Z,3.59
2019-04-16T05:49:26.537Z,3.60
2019-04-16T05:49:58.687Z,3.55
2019-04-16T05:50:30.078Z,3.65
2019-04-16T05:51:01.258Z,3.67
2019-04-16T05:51:32.456Z,3.60
2019-04-16T05:52:04.172Z,3.60
2019-04-16T05:52:36.517Z,3.71
2019-04-16T05:53:09.336Z,3.77
2019-04-16T05:53:42.623Z,3.77
2019-04-16T05:54:21.636Z,3.79
2019-04-16T05:55:09.474Z,3.84
2019-04-16T05:55:49.651Z,3.84
2019-04-16T05:56:24.657Z,3.82
2019-04-16T05:57:13.289Z,3.82
2019-04-16T05:57:46.458Z,3.93
2019-04-16T05:58:17.742Z,3.93
2019-04-16T05:58:48.906Z,3.96
2019-04-16T05:59:20.063Z,4.00
2019-04-16T05:59:52.250Z,4.00
2019-04-16T06:00:25.325Z,4.01
2019-04-16T06:01:01.062Z,4.06
2019-04-16T06:01:46.227Z,4.06
2019-04-16T06:02:26.107Z,4.08
2019-04-16T06:02:57.341Z,4.08
2019-04-16T06:03:28.517Z,4.08
2019-04-16T06:03:59.741Z,4.16
2019-04-16T06:04:30.903Z,4.17
2019-04-16T06:05:03.725Z,4.18
2019-04-16T06:05:34.891Z,4.10
2019-04-16T06:06:06.115Z,4.21
2019-04-16T06:06:37.313Z,4.24
2019-04-16T06:07:08.525Z,4.17
2019-04-16T06:07:39.727Z,4.17
2019-04-16T06:08:11.239Z,4.30
2019-04-16T06:08:42.422Z,4.30
2019-04-16T06:09:13.631Z,4.35
2019-04-16T06:09:45.352Z,4.26
2019-04-16T06:10:18.269Z,4.36
2019-04-16T06:10:50.935Z,4.39
2019-04-16T06:11:29.419Z,4.39
2019-04-16T06:11:55.511Z,4.36
2019-04-16T06:12:28.605Z,4.48
2019-04-16T06:12:59.813Z,4.48
2019-04-16T06:13:35.583Z,4.49
2019-04-16T06:14:16.874Z,4.53
2019-04-16T06:15:01.304Z,4.56
2019-04-16T06:15:37.320Z,4.57
2019-04-16T06:16:16.602Z,4.51
2019-04-16T06:17:06.342Z,4.63
2019-04-16T06:17:55.866Z,4.68
2019-04-16T06:18:37.044Z,4.59
2019-04-16T06:19:15.038Z,4.74
2019-04-16T06:19:51.029Z,4.77
2019-04-16T06:20:24.074Z,4.77
2019-04-16T06:20:55.302Z,4.79
2019-04-16T06:21:29.489Z,4.80
2019-04-16T06:22:06.678Z,4.81
2019-04-16T06:22:51.776Z,4.81
2019-04-16T06:23:41.122Z,4.82
2019-04-16T06:24:12.281Z,4.82
2019-04-16T06:25:08.383Z,4.85
2019-04-16T06:25:41.268Z,4.88
2019-04-16T06:26:16.617Z,4.88
2019-04-16T06:27:07.216Z,4.80
2019-04-16T06:27:40.351Z,4.82
2019-04-16T06:28:20.384Z,4.82
2019-04-16T06:28:55.147Z,4.86
2019-04-16T06:29:25.392Z,4.86
2019-04-16T06:30:05.742Z,5.03
2019-04-16T06:30:38.787Z,5.03
2019-04-16T06:31:11.967Z,5.09
2019-04-16T06:31:45.031Z,5.11
2019-04-16T06:32:16.272Z,5.15
2019-04-16T06:33:01.385Z,5.16
2019-04-16T06:33:32.580Z,5.09
2019-04-16T06:34:24.354Z,5.09
2019-04-16T06:35:02.894Z,5.22
2019-04-16T06:35:43.594Z,5.24
2019-04-16T06:36:22.828Z,5.27
2019-04-16T06:36:58.829Z,5.22
2019-04-16T06:37:48.199Z,5.22
2019-04-16T06:38:21.571Z,5.30
2019-04-16T06:39:03.523Z,5.40
2019-04-16T06:39:38.529Z,5.40
2019-04-16T06:40:11.637Z,5.43
2019-04-16T06:40:48.134Z,5.46
2019-04-16T06:41:41.607Z,5.38
2019-04-16T06:42:06.104Z,5.41
2019-04-16T06:42:39.238Z,5.53
2019-04-16T06:43:28.795Z,5.53
2019-04-16T06:44:03.944Z,5.45
2019-04-16T06:44:36.886Z,5.58
2019-04-16T06:45:12.752Z,5.63
2019-04-16T06:45:45.812Z,5.55
2019-04-16T06:46:27.601Z,5.55
2019-04-16T06:47:00.671Z,5.64
2019-04-16T06:47:33.798Z,5.62
2019-04-16T06:48:13.225Z,5.62
2019-04-16T06:48:47.810Z,5.75
2019-04-16T06:49:20.903Z,5.75
2019-04-16T06:49:57.149Z,5.69
2019-04-16T06:50:32.529Z,5.71
2019-04-16T06:51:01.585Z,5.75
2019-04-16T06:51:50.975Z,5.86
2019-04-16T06:52:37.177Z,5.89
2019-04-16T06:53:08.619Z,5.83
2019-04-16T06:53:44.361Z,5.83
2019-04-16T06:54:34.403Z,5.98
2019-04-16T06:55:19.535Z,5.98
2019-04-16T06:55:56.564Z,6.01
2019-04-16T06:56:30.578Z,5.91
2019-04-16T06:57:20.233Z,6.10
2019-04-16T06:58:09.561Z,6.01
2019-04-16T06:58:51.259Z,6.01
2019-04-16T06:59:17.901Z,6.15
2019-04-16T06:59:59.459Z,6.15
2019-04-16T07:00:39.831Z,6.06
2019-04-16T07:01:17.252Z,6.18
2019-04-16T07:01:56.493Z,6.18
2019-04-16T07:02:44.006Z,6.21
2019-04-16T07:03:33.963Z,6.21
2019-04-16T07:04:07.127Z,6.25
2019-04-16T07:04:46.323Z,6.25
2019-04-16T07:05:35.981Z,6.27
2019-04-16T07:06:25.805Z,6.29
2019-04-16T07:07:15.440Z,6.35
2019-04-16T07:08:06.848Z,6.37
2019-04-16T07:08:41.984Z,6.29
2019-04-16T07:09:13.322Z,6.42
2019-04-16T07:09:46.437Z,6.42
2019-04-16T07:10:19.586Z,6.33
2019-04-16T07:10:53.692Z,6.36
2019-04-16T07:11:26.644Z,6.49
2019-04-16T07:12:02.764Z,6.52
2019-04-16T07:12:38.169Z,6.52
2019-04-16T07:13:09.980Z,6.45
2019-04-16T07:13:42.212Z,6.50
2019-04-16T07:14:15.646Z,6.55
2019-04-16T07:14:48.329Z,6.57
2019-04-16T07:15:24.193Z,6.63
2019-04-16T07:15:56.425Z,6.63
2019-04-16T07:16:28.862Z,6.66
2019-04-16T07:17:00.118Z,6.63
2019-04-16T07:17:33.726Z,6.73
2019-04-16T07:18:06.207Z,6.76
2019-04-16T07:18:38.706Z,6.79
2019-04-16T07:19:11.650Z,6.79
2019-04-16T07:19:42.941Z,6.80
2019-04-16T07:20:14.354Z,6.89
2019-04-16T07:20:46.633Z,6.89
2019-04-16T07:21:18.358Z,6.91
2019-04-16T07:21:51.627Z,6.94
2019-04-16T07:22:22.881Z,6.89
2019-04-16T07:22:55.539Z,7.02
2019-04-16T07:23:26.896Z,7.02
2019-04-16T07:23:59.334Z,7.06
2019-04-16T07:24:34.734Z,7.07